sensor_id;sensor_type;location;lat;lon;timestamp;temperature;humidity
36424;DHT22;22458;45.328;9.514;2022-10-17T00:01:23;18.40;82.50
36424;DHT22;22458;45.328;9.514;2022-10-17T00:03:49;18.40;82.40
36424;DHT22;22458;45.328;9.514;2022-10-17T00:06:15;18.40;82.30
36424;DHT22;22458;45.328;9.514;2022-10-17T00:08:41;18.30;82.20
36424;DHT22;22458;45.328;9.514;2022-10-17T00:11:08;18.30;82.10
36424;DHT22;22458;45.328;9.514;2022-10-17T00:13:36;18.30;82.00
36424;DHT22;22458;45.328;9.514;2022-10-17T00:16:02;18.30;81.90
36424;DHT22;22458;45.328;9.514;2022-10-17T00:18:28;18.20;81.90
36424;DHT22;22458;45.328;9.514;2022-10-17T00:20:53;18.30;82.00
36424;DHT22;22458;45.328;9.514;2022-10-17T00:23:19;18.20;81.90
36424;DHT22;22458;45.328;9.514;2022-10-17T00:25:45;18.20;82.00
36424;DHT22;22458;45.328;9.514;2022-10-17T00:28:11;18.20;82.20
36424;DHT22;22458;45.328;9.514;2022-10-17T00:30:37;18.20;82.20
36424;DHT22;22458;45.328;9.514;2022-10-17T00:33:03;18.10;82.10
36424;DHT22;22458;45.328;9.514;2022-10-17T00:35:29;18.20;82.10
36424;DHT22;22458;45.328;9.514;2022-10-17T00:37:55;18.10;82.20
36424;DHT22;22458;45.328;9.514;2022-10-17T00:40:21;18.10;82.20
36424;DHT22;22458;45.328;9.514;2022-10-17T00:42:46;18.10;82.20
36424;DHT22;22458;45.328;9.514;2022-10-17T00:45:22;18.00;82.30
36424;DHT22;22458;45.328;9.514;2022-10-17T00:47:59;18.00;82.60
36424;DHT22;22458;45.328;9.514;2022-10-17T00:50:25;18.00;82.70
36424;DHT22;22458;45.328;9.514;2022-10-17T00:52:51;18.00;82.50
36424;DHT22;22458;45.328;9.514;2022-10-17T00:55:27;18.00;82.30
36424;DHT22;22458;45.328;9.514;2022-10-17T00:57:55;18.00;82.30
36424;DHT22;22458;45.328;9.514;2022-10-17T01:00:21;18.00;82.30
36424;DHT22;22458;45.328;9.514;2022-10-17T01:02:48;18.00;82.30
36424;DHT22;22458;45.328;9.514;2022-10-17T01:05:15;18.00;82.30
36424;DHT22;22458;45.328;9.514;2022-10-17T01:07:42;18.00;82.30
36424;DHT22;22458;45.328;9.514;2022-10-17T01:10:08;18.00;82.40
36424;DHT22;22458;45.328;9.514;2022-10-17T01:20:12;17.90;82.50
36424;DHT22;22458;45.328;9.514;2022-10-17T01:22:46;17.90;82.50
36424;DHT22;22458;45.328;9.514;2022-10-17T01:27:57;17.80;82.70
36424;DHT22;22458;45.328;9.514;2022-10-17T01:30:28;17.70;83.00
36424;DHT22;22458;45.328;9.514;2022-10-17T01:33:01;17.60;83.20
36424;DHT22;22458;45.328;9.514;2022-10-17T01:35:32;17.60;83.20
36424;DHT22;22458;45.328;9.514;2022-10-17T01:40:41;17.60;83.30
36424;DHT22;22458;45.328;9.514;2022-10-17T01:45:54;17.70;83.50
36424;DHT22;22458;45.328;9.514;2022-10-17T01:48:26;17.70;83.50
36424;DHT22;22458;45.328;9.514;2022-10-17T01:50:56;17.70;83.50
36424;DHT22;22458;45.328;9.514;2022-10-17T01:53:29;17.70;83.60
36424;DHT22;22458;45.328;9.514;2022-10-17T01:55:56;17.70;83.60
36424;DHT22;22458;45.328;9.514;2022-10-17T01:58:31;17.70;83.50
36424;DHT22;22458;45.328;9.514;2022-10-17T02:00:59;17.70;83.60
36424;DHT22;22458;45.328;9.514;2022-10-17T02:03:30;17.70;83.60
36424;DHT22;22458;45.328;9.514;2022-10-17T02:05:56;17.70;83.60
36424;DHT22;22458;45.328;9.514;2022-10-17T02:08:38;17.70;83.50
36424;DHT22;22458;45.328;9.514;2022-10-17T02:11:05;17.70;83.50
36424;DHT22;22458;45.328;9.514;2022-10-17T02:21:08;17.70;83.60
36424;DHT22;22458;45.328;9.514;2022-10-17T02:23:40;17.70;83.70
36424;DHT22;22458;45.328;9.514;2022-10-17T02:26:27;17.60;83.60
36424;DHT22;22458;45.328;9.514;2022-10-17T02:31:48;17.60;83.90
36424;DHT22;22458;45.328;9.514;2022-10-17T02:36:50;17.50;83.90
36424;DHT22;22458;45.328;9.514;2022-10-17T02:39:18;17.50;83.90
36424;DHT22;22458;45.328;9.514;2022-10-17T02:41:44;17.60;83.90
36424;DHT22;22458;45.328;9.514;2022-10-17T02:44:11;17.60;83.80
36424;DHT22;22458;45.328;9.514;2022-10-17T02:46:36;17.60;83.80
36424;DHT22;22458;45.328;9.514;2022-10-17T02:49:06;17.50;83.90
36424;DHT22;22458;45.328;9.514;2022-10-17T02:51:51;17.50;83.90
36424;DHT22;22458;45.328;9.514;2022-10-17T02:54:32;17.50;83.90
36424;DHT22;22458;45.328;9.514;2022-10-17T02:57:11;17.50;83.80
36424;DHT22;22458;45.328;9.514;2022-10-17T02:59:38;17.50;83.80
36424;DHT22;22458;45.328;9.514;2022-10-17T03:02:06;17.50;83.80
36424;DHT22;22458;45.328;9.514;2022-10-17T03:04:32;17.50;83.90
36424;DHT22;22458;45.328;9.514;2022-10-17T03:06:58;17.50;84.00
36424;DHT22;22458;45.328;9.514;2022-10-17T03:09:24;17.50;83.90
36424;DHT22;22458;45.328;9.514;2022-10-17T03:11:49;17.40;84.00
36424;DHT22;22458;45.328;9.514;2022-10-17T03:14:15;17.30;84.20
36424;DHT22;22458;45.328;9.514;2022-10-17T03:16:41;17.30;84.40
36424;DHT22;22458;45.328;9.514;2022-10-17T03:19:07;17.30;84.40
36424;DHT22;22458;45.328;9.514;2022-10-17T03:21:33;17.30;84.50
36424;DHT22;22458;45.328;9.514;2022-10-17T03:24:01;17.30;84.50
36424;DHT22;22458;45.328;9.514;2022-10-17T03:26:27;17.30;84.40
36424;DHT22;22458;45.328;9.514;2022-10-17T03:28:54;17.30;84.30
36424;DHT22;22458;45.328;9.514;2022-10-17T03:31:21;17.40;84.10
36424;DHT22;22458;45.328;9.514;2022-10-17T03:33:48;17.40;83.90
36424;DHT22;22458;45.328;9.514;2022-10-17T03:36:14;17.40;83.90
36424;DHT22;22458;45.328;9.514;2022-10-17T03:38:40;17.40;83.90
36424;DHT22;22458;45.328;9.514;2022-10-17T03:41:06;17.30;83.70
36424;DHT22;22458;45.328;9.514;2022-10-17T03:43:32;17.30;83.80
36424;DHT22;22458;45.328;9.514;2022-10-17T03:45:58;17.20;84.00
36424;DHT22;22458;45.328;9.514;2022-10-17T03:48:25;17.20;84.30
36424;DHT22;22458;45.328;9.514;2022-10-17T03:50:52;17.20;84.40
36424;DHT22;22458;45.328;9.514;2022-10-17T03:53:22;17.10;84.40
36424;DHT22;22458;45.328;9.514;2022-10-17T03:55:48;17.10;84.40
36424;DHT22;22458;45.328;9.514;2022-10-17T03:58:13;17.00;84.60
36424;DHT22;22458;45.328;9.514;2022-10-17T04:00:39;16.90;85.00
36424;DHT22;22458;45.328;9.514;2022-10-17T04:03:05;16.90;85.30
36424;DHT22;22458;45.328;9.514;2022-10-17T04:05:30;17.00;85.40
36424;DHT22;22458;45.328;9.514;2022-10-17T04:07:56;16.90;85.20
36424;DHT22;22458;45.328;9.514;2022-10-17T04:10:36;17.00;85.20
36424;DHT22;22458;45.328;9.514;2022-10-17T04:13:02;17.00;85.00
36424;DHT22;22458;45.328;9.514;2022-10-17T04:15:28;17.00;85.00
36424;DHT22;22458;45.328;9.514;2022-10-17T04:17:53;17.00;85.00
36424;DHT22;22458;45.328;9.514;2022-10-17T04:20:19;17.00;85.10
36424;DHT22;22458;45.328;9.514;2022-10-17T04:22:45;17.00;85.10
36424;DHT22;22458;45.328;9.514;2022-10-17T04:25:11;17.00;85.10
36424;DHT22;22458;45.328;9.514;2022-10-17T04:27:41;17.00;85.10
36424;DHT22;22458;45.328;9.514;2022-10-17T04:30:07;17.00;85.10
36424;DHT22;22458;45.328;9.514;2022-10-17T04:32:37;16.90;85.10
36424;DHT22;22458;45.328;9.514;2022-10-17T04:35:11;17.00;85.20
36424;DHT22;22458;45.328;9.514;2022-10-17T04:37:40;16.90;85.10
36424;DHT22;22458;45.328;9.514;2022-10-17T04:40:12;17.00;85.20
36424;DHT22;22458;45.328;9.514;2022-10-17T04:42:37;17.00;85.30
36424;DHT22;22458;45.328;9.514;2022-10-17T04:45:04;17.00;85.30
36424;DHT22;22458;45.328;9.514;2022-10-17T04:47:30;17.00;85.30
36424;DHT22;22458;45.328;9.514;2022-10-17T04:49:55;17.00;85.30
36424;DHT22;22458;45.328;9.514;2022-10-17T04:52:21;17.00;85.40
36424;DHT22;22458;45.328;9.514;2022-10-17T04:54:48;17.00;85.30
36424;DHT22;22458;45.328;9.514;2022-10-17T04:57:14;17.00;85.50
36424;DHT22;22458;45.328;9.514;2022-10-17T04:59:45;17.00;85.50
36424;DHT22;22458;45.328;9.514;2022-10-17T05:02:17;17.00;85.40
36424;DHT22;22458;45.328;9.514;2022-10-17T05:04:44;17.10;85.30
36424;DHT22;22458;45.328;9.514;2022-10-17T05:07:11;17.10;85.10
36424;DHT22;22458;45.328;9.514;2022-10-17T05:09:45;17.10;85.10
36424;DHT22;22458;45.328;9.514;2022-10-17T05:12:11;17.10;85.00
36424;DHT22;22458;45.328;9.514;2022-10-17T05:14:40;17.10;84.90
36424;DHT22;22458;45.328;9.514;2022-10-17T05:17:06;17.10;84.80
36424;DHT22;22458;45.328;9.514;2022-10-17T05:19:32;17.10;84.80
36424;DHT22;22458;45.328;9.514;2022-10-17T05:21:58;17.00;84.70
36424;DHT22;22458;45.328;9.514;2022-10-17T05:24:23;17.00;84.70
36424;DHT22;22458;45.328;9.514;2022-10-17T05:26:49;17.00;84.70
36424;DHT22;22458;45.328;9.514;2022-10-17T05:29:16;16.90;84.80
36424;DHT22;22458;45.328;9.514;2022-10-17T05:31:47;16.90;85.00
36424;DHT22;22458;45.328;9.514;2022-10-17T05:34:12;16.80;85.00
36424;DHT22;22458;45.328;9.514;2022-10-17T05:36:38;16.80;84.90
36424;DHT22;22458;45.328;9.514;2022-10-17T05:39:04;16.80;85.00
36424;DHT22;22458;45.328;9.514;2022-10-17T05:41:32;16.80;84.80
36424;DHT22;22458;45.328;9.514;2022-10-17T05:43:57;16.70;85.20
36424;DHT22;22458;45.328;9.514;2022-10-17T05:46:36;16.50;85.50
36424;DHT22;22458;45.328;9.514;2022-10-17T05:49:01;16.40;85.80
36424;DHT22;22458;45.328;9.514;2022-10-17T05:51:27;16.40;85.90
36424;DHT22;22458;45.328;9.514;2022-10-17T05:53:54;16.40;86.00
36424;DHT22;22458;45.328;9.514;2022-10-17T05:56:24;16.50;85.90
36424;DHT22;22458;45.328;9.514;2022-10-17T05:58:49;16.50;85.80
36424;DHT22;22458;45.328;9.514;2022-10-17T06:01:32;16.60;85.70
36424;DHT22;22458;45.328;9.514;2022-10-17T06:03:57;16.50;85.70
36424;DHT22;22458;45.328;9.514;2022-10-17T06:06:24;16.60;85.70
36424;DHT22;22458;45.328;9.514;2022-10-17T06:08:50;16.60;85.70
36424;DHT22;22458;45.328;9.514;2022-10-17T06:11:21;16.70;85.70
36424;DHT22;22458;45.328;9.514;2022-10-17T06:13:46;16.80;85.60
36424;DHT22;22458;45.328;9.514;2022-10-17T06:16:21;16.80;85.60
36424;DHT22;22458;45.328;9.514;2022-10-17T06:18:47;16.70;85.80
36424;DHT22;22458;45.328;9.514;2022-10-17T06:21:14;16.70;86.10
36424;DHT22;22458;45.328;9.514;2022-10-17T06:23:44;16.70;86.20
36424;DHT22;22458;45.328;9.514;2022-10-17T06:26:15;16.80;86.20
36424;DHT22;22458;45.328;9.514;2022-10-17T06:28:40;16.90;86.20
36424;DHT22;22458;45.328;9.514;2022-10-17T06:31:07;16.90;86.10
36424;DHT22;22458;45.328;9.514;2022-10-17T06:33:33;17.00;86.10
36424;DHT22;22458;45.328;9.514;2022-10-17T06:36:00;17.10;86.20
36424;DHT22;22458;45.328;9.514;2022-10-17T06:38:29;17.20;86.10
36424;DHT22;22458;45.328;9.514;2022-10-17T06:41:04;17.30;86.20
36424;DHT22;22458;45.328;9.514;2022-10-17T06:43:33;17.30;86.10
36424;DHT22;22458;45.328;9.514;2022-10-17T06:46:17;17.40;86.20
36424;DHT22;22458;45.328;9.514;2022-10-17T06:48:53;17.40;86.30
36424;DHT22;22458;45.328;9.514;2022-10-17T06:51:34;17.50;86.50
36424;DHT22;22458;45.328;9.514;2022-10-17T06:54:00;17.50;86.50
36424;DHT22;22458;45.328;9.514;2022-10-17T06:56:46;17.30;86.90
36424;DHT22;22458;45.328;9.514;2022-10-17T06:59:44;17.30;87.50
36424;DHT22;22458;45.328;9.514;2022-10-17T07:02:15;17.30;87.70
36424;DHT22;22458;45.328;9.514;2022-10-17T07:04:44;17.40;87.70
36424;DHT22;22458;45.328;9.514;2022-10-17T07:07:11;17.50;87.70
36424;DHT22;22458;45.328;9.514;2022-10-17T07:09:37;17.40;87.90
36424;DHT22;22458;45.328;9.514;2022-10-17T07:12:02;17.40;88.20
36424;DHT22;22458;45.328;9.514;2022-10-17T07:14:31;17.40;88.20
36424;DHT22;22458;45.328;9.514;2022-10-17T07:16:58;17.50;88.30
36424;DHT22;22458;45.328;9.514;2022-10-17T07:19:26;17.50;88.40
36424;DHT22;22458;45.328;9.514;2022-10-17T07:21:52;17.60;88.40
36424;DHT22;22458;45.328;9.514;2022-10-17T07:24:18;17.70;88.30
36424;DHT22;22458;45.328;9.514;2022-10-17T07:26:48;17.80;88.20
36424;DHT22;22458;45.328;9.514;2022-10-17T07:29:14;18.00;88.00
36424;DHT22;22458;45.328;9.514;2022-10-17T07:31:51;18.10;87.80
36424;DHT22;22458;45.328;9.514;2022-10-17T07:34:17;18.20;87.70
36424;DHT22;22458;45.328;9.514;2022-10-17T07:36:43;18.20;87.80
36424;DHT22;22458;45.328;9.514;2022-10-17T07:39:10;18.10;88.10
36424;DHT22;22458;45.328;9.514;2022-10-17T07:41:37;18.10;88.30
36424;DHT22;22458;45.328;9.514;2022-10-17T07:44:03;18.20;88.20
36424;DHT22;22458;45.328;9.514;2022-10-17T07:46:34;18.40;88.00
36424;DHT22;22458;45.328;9.514;2022-10-17T07:48:59;18.50;88.00
36424;DHT22;22458;45.328;9.514;2022-10-17T07:51:25;18.50;87.80
36424;DHT22;22458;45.328;9.514;2022-10-17T07:53:52;18.60;87.70
36424;DHT22;22458;45.328;9.514;2022-10-17T07:56:17;18.70;87.70
36424;DHT22;22458;45.328;9.514;2022-10-17T07:58:43;18.80;87.70
36424;DHT22;22458;45.328;9.514;2022-10-17T08:01:09;18.80;87.70
36424;DHT22;22458;45.328;9.514;2022-10-17T08:03:39;18.80;88.00
36424;DHT22;22458;45.328;9.514;2022-10-17T08:06:05;18.80;88.10
36424;DHT22;22458;45.328;9.514;2022-10-17T08:08:30;18.90;88.10
36424;DHT22;22458;45.328;9.514;2022-10-17T08:11:00;18.90;88.20
36424;DHT22;22458;45.328;9.514;2022-10-17T08:13:26;19.00;88.20
36424;DHT22;22458;45.328;9.514;2022-10-17T08:15:52;19.00;88.20
36424;DHT22;22458;45.328;9.514;2022-10-17T08:18:17;19.00;88.70
36424;DHT22;22458;45.328;9.514;2022-10-17T08:20:43;19.00;88.80
36424;DHT22;22458;45.328;9.514;2022-10-17T08:23:09;19.10;88.80
36424;DHT22;22458;45.328;9.514;2022-10-17T08:25:36;19.00;88.90
36424;DHT22;22458;45.328;9.514;2022-10-17T08:28:02;19.10;89.20
36424;DHT22;22458;45.328;9.514;2022-10-17T08:30:28;19.10;89.20
36424;DHT22;22458;45.328;9.514;2022-10-17T08:32:55;19.20;89.20
36424;DHT22;22458;45.328;9.514;2022-10-17T08:35:21;19.20;89.10
36424;DHT22;22458;45.328;9.514;2022-10-17T08:37:46;19.30;89.20
36424;DHT22;22458;45.328;9.514;2022-10-17T08:40:23;19.30;89.20
36424;DHT22;22458;45.328;9.514;2022-10-17T08:47:42;19.40;89.30
36424;DHT22;22458;45.328;9.514;2022-10-17T08:50:17;19.40;89.30
36424;DHT22;22458;45.328;9.514;2022-10-17T08:55:13;19.70;89.10
36424;DHT22;22458;45.328;9.514;2022-10-17T08:57:39;19.60;89.10
36424;DHT22;22458;45.328;9.514;2022-10-17T09:00:10;19.60;89.40
36424;DHT22;22458;45.328;9.514;2022-10-17T09:02:41;19.70;89.40
36424;DHT22;22458;45.328;9.514;2022-10-17T09:08:16;19.70;89.40
36424;DHT22;22458;45.328;9.514;2022-10-17T09:15:41;19.80;89.30
36424;DHT22;22458;45.328;9.514;2022-10-17T09:18:17;19.80;90.00
36424;DHT22;22458;45.328;9.514;2022-10-17T09:20:55;19.90;89.30
36424;DHT22;22458;45.328;9.514;2022-10-17T09:23:24;19.80;89.60
36424;DHT22;22458;45.328;9.514;2022-10-17T09:25:52;19.60;90.00
36424;DHT22;22458;45.328;9.514;2022-10-17T09:28:20;19.50;90.20
36424;DHT22;22458;45.328;9.514;2022-10-17T09:30:49;19.50;90.40
36424;DHT22;22458;45.328;9.514;2022-10-17T09:33:19;19.60;90.30
36424;DHT22;22458;45.328;9.514;2022-10-17T09:35:46;19.70;90.30
36424;DHT22;22458;45.328;9.514;2022-10-17T09:38:16;19.80;90.20
36424;DHT22;22458;45.328;9.514;2022-10-17T09:40:42;20.00;90.10
36424;DHT22;22458;45.328;9.514;2022-10-17T09:43:09;20.10;89.90
36424;DHT22;22458;45.328;9.514;2022-10-17T09:45:39;20.20;89.90
36424;DHT22;22458;45.328;9.514;2022-10-17T09:51:02;20.40;89.40
36424;DHT22;22458;45.328;9.514;2022-10-17T09:53:32;20.60;89.30
36424;DHT22;22458;45.328;9.514;2022-10-17T09:56:00;20.80;89.30
36424;DHT22;22458;45.328;9.514;2022-10-17T09:58:42;20.90;89.10
36424;DHT22;22458;45.328;9.514;2022-10-17T10:01:18;21.10;89.10
36424;DHT22;22458;45.328;9.514;2022-10-17T10:03:44;21.20;88.80
36424;DHT22;22458;45.328;9.514;2022-10-17T10:06:17;21.30;88.50
36424;DHT22;22458;45.328;9.514;2022-10-17T10:08:47;21.40;88.60
36424;DHT22;22458;45.328;9.514;2022-10-17T10:11:14;21.50;88.30
36424;DHT22;22458;45.328;9.514;2022-10-17T10:13:40;21.60;87.90
36424;DHT22;22458;45.328;9.514;2022-10-17T10:16:17;21.60;87.70
36424;DHT22;22458;45.328;9.514;2022-10-17T10:18:44;21.40;88.40
36424;DHT22;22458;45.328;9.514;2022-10-17T10:23:36;21.40;87.80
36424;DHT22;22458;45.328;9.514;2022-10-17T10:26:26;21.50;87.70
36424;DHT22;22458;45.328;9.514;2022-10-17T10:28:58;21.60;87.40
36424;DHT22;22458;45.328;9.514;2022-10-17T10:31:29;21.50;87.20
36424;DHT22;22458;45.328;9.514;2022-10-17T10:33:55;21.50;87.30
36424;DHT22;22458;45.328;9.514;2022-10-17T10:36:21;21.70;87.20
36424;DHT22;22458;45.328;9.514;2022-10-17T10:38:51;21.70;86.90
36424;DHT22;22458;45.328;9.514;2022-10-17T10:41:17;21.70;86.80
36424;DHT22;22458;45.328;9.514;2022-10-17T10:43:46;21.70;86.70
36424;DHT22;22458;45.328;9.514;2022-10-17T10:48:48;22.00;86.10
36424;DHT22;22458;45.328;9.514;2022-10-17T10:51:18;22.10;85.90
36424;DHT22;22458;45.328;9.514;2022-10-17T10:56:37;22.40;85.10
36424;DHT22;22458;45.328;9.514;2022-10-17T10:59:08;22.50;84.80
36424;DHT22;22458;45.328;9.514;2022-10-17T11:06:44;22.60;84.10
36424;DHT22;22458;45.328;9.514;2022-10-17T11:11:42;22.60;84.00
36424;DHT22;22458;45.328;9.514;2022-10-17T11:14:13;22.50;84.10
36424;DHT22;22458;45.328;9.514;2022-10-17T11:16:45;22.60;84.00
36424;DHT22;22458;45.328;9.514;2022-10-17T11:21:42;22.70;83.50
36424;DHT22;22458;45.328;9.514;2022-10-17T11:26:54;22.90;83.10
36424;DHT22;22458;45.328;9.514;2022-10-17T11:29:25;22.90;82.70
36424;DHT22;22458;45.328;9.514;2022-10-17T11:31:51;22.90;82.70
36424;DHT22;22458;45.328;9.514;2022-10-17T11:34:25;23.00;82.60
36424;DHT22;22458;45.328;9.514;2022-10-17T11:36:53;23.10;82.40
36424;DHT22;22458;45.328;9.514;2022-10-17T11:42:03;23.50;81.80
36424;DHT22;22458;45.328;9.514;2022-10-17T11:44:40;23.70;81.40
36424;DHT22;22458;45.328;9.514;2022-10-17T11:49:44;23.90;80.90
36424;DHT22;22458;45.328;9.514;2022-10-17T11:54:49;23.90;80.60
36424;DHT22;22458;45.328;9.514;2022-10-17T11:59:47;23.90;80.40
36424;DHT22;22458;45.328;9.514;2022-10-17T12:02:19;24.00;80.40
36424;DHT22;22458;45.328;9.514;2022-10-17T12:04:53;24.00;80.10
36424;DHT22;22458;45.328;9.514;2022-10-17T12:07:26;24.00;79.80
36424;DHT22;22458;45.328;9.514;2022-10-17T12:09:59;24.00;79.40
36424;DHT22;22458;45.328;9.514;2022-10-17T12:12:31;24.00;79.20
36424;DHT22;22458;45.328;9.514;2022-10-17T12:17:36;24.10;78.70
36424;DHT22;22458;45.328;9.514;2022-10-17T12:22:46;24.40;78.40
36424;DHT22;22458;45.328;9.514;2022-10-17T12:25:22;24.50;78.20
36424;DHT22;22458;45.328;9.514;2022-10-17T12:27:49;24.60;78.10
36424;DHT22;22458;45.328;9.514;2022-10-17T12:30:19;24.70;77.90
36424;DHT22;22458;45.328;9.514;2022-10-17T12:35:27;24.80;77.40
36424;DHT22;22458;45.328;9.514;2022-10-17T12:43:46;24.90;76.80
36424;DHT22;22458;45.328;9.514;2022-10-17T12:45:55;25.00;76.50
36424;DHT22;22458;45.328;9.514;2022-10-17T12:53:34;24.90;76.00
36424;DHT22;22458;45.328;9.514;2022-10-17T12:56:01;24.90;75.90
36424;DHT22;22458;45.328;9.514;2022-10-17T12:58:27;25.00;75.80
36424;DHT22;22458;45.328;9.514;2022-10-17T13:00:54;25.00;75.70
36424;DHT22;22458;45.328;9.514;2022-10-17T13:03:22;25.00;75.50
36424;DHT22;22458;45.328;9.514;2022-10-17T13:05:58;25.00;75.40
36424;DHT22;22458;45.328;9.514;2022-10-17T13:08:32;25.00;75.20
36424;DHT22;22458;45.328;9.514;2022-10-17T13:10:58;25.10;75.00
36424;DHT22;22458;45.328;9.514;2022-10-17T13:13:25;25.20;74.90
36424;DHT22;22458;45.328;9.514;2022-10-17T13:15:58;25.20;74.80
36424;DHT22;22458;45.328;9.514;2022-10-17T13:18:25;25.30;75.20
36424;DHT22;22458;45.328;9.514;2022-10-17T13:21:01;25.40;74.50
36424;DHT22;22458;45.328;9.514;2022-10-17T13:23:29;25.30;74.40
36424;DHT22;22458;45.328;9.514;2022-10-17T13:26:05;25.30;74.30
36424;DHT22;22458;45.328;9.514;2022-10-17T13:28:30;25.40;74.10
36424;DHT22;22458;45.328;9.514;2022-10-17T13:30:56;25.40;73.90
36424;DHT22;22458;45.328;9.514;2022-10-17T13:35:53;25.30;73.80
36424;DHT22;22458;45.328;9.514;2022-10-17T13:38:20;25.20;73.70
36424;DHT22;22458;45.328;9.514;2022-10-17T13:40:48;25.30;73.80
36424;DHT22;22458;45.328;9.514;2022-10-17T13:43:18;25.40;73.70
36424;DHT22;22458;45.328;9.514;2022-10-17T13:45:48;25.30;73.70
36424;DHT22;22458;45.328;9.514;2022-10-17T13:48:19;25.30;73.70
36424;DHT22;22458;45.328;9.514;2022-10-17T13:50:46;25.30;73.70
36424;DHT22;22458;45.328;9.514;2022-10-17T13:55:51;25.40;73.50
36424;DHT22;22458;45.328;9.514;2022-10-17T13:58:17;25.40;73.40
36424;DHT22;22458;45.328;9.514;2022-10-17T14:00:43;25.40;73.40
36424;DHT22;22458;45.328;9.514;2022-10-17T14:03:09;25.40;73.30
36424;DHT22;22458;45.328;9.514;2022-10-17T14:05:35;25.40;73.20
36424;DHT22;22458;45.328;9.514;2022-10-17T14:08:20;25.50;72.90
36424;DHT22;22458;45.328;9.514;2022-10-17T14:10:46;25.40;72.80
36424;DHT22;22458;45.328;9.514;2022-10-17T14:13:19;25.40;72.50
36424;DHT22;22458;45.328;9.514;2022-10-17T14:15:46;25.40;72.40
36424;DHT22;22458;45.328;9.514;2022-10-17T14:18:19;25.40;72.20
36424;DHT22;22458;45.328;9.514;2022-10-17T14:20:46;25.40;72.20
36424;DHT22;22458;45.328;9.514;2022-10-17T14:23:28;25.30;72.10
36424;DHT22;22458;45.328;9.514;2022-10-17T14:28:32;25.40;71.90
36424;DHT22;22458;45.328;9.514;2022-10-17T14:31:18;25.40;72.00
36424;DHT22;22458;45.328;9.514;2022-10-17T14:33:45;25.30;71.90
36424;DHT22;22458;45.328;9.514;2022-10-17T14:36:11;25.30;71.90
36424;DHT22;22458;45.328;9.514;2022-10-17T14:38:37;25.30;71.90
36424;DHT22;22458;45.328;9.514;2022-10-17T14:43:51;25.40;71.70
36424;DHT22;22458;45.328;9.514;2022-10-17T14:46:17;25.40;71.60
36424;DHT22;22458;45.328;9.514;2022-10-17T14:48:42;25.40;71.70
36424;DHT22;22458;45.328;9.514;2022-10-17T14:51:13;25.30;71.80
36424;DHT22;22458;45.328;9.514;2022-10-17T14:53:40;25.20;71.70
36424;DHT22;22458;45.328;9.514;2022-10-17T14:56:22;25.20;71.80
36424;DHT22;22458;45.328;9.514;2022-10-17T14:58:48;25.20;71.80
36424;DHT22;22458;45.328;9.514;2022-10-17T15:01:13;25.20;71.80
36424;DHT22;22458;45.328;9.514;2022-10-17T15:03:39;25.10;71.70
36424;DHT22;22458;45.328;9.514;2022-10-17T15:06:11;25.20;71.50
36424;DHT22;22458;45.328;9.514;2022-10-17T15:08:39;25.20;71.40
36424;DHT22;22458;45.328;9.514;2022-10-17T15:11:05;25.30;71.30
36424;DHT22;22458;45.328;9.514;2022-10-17T15:13:30;25.30;71.20
36424;DHT22;22458;45.328;9.514;2022-10-17T15:15:56;25.30;71.30
36424;DHT22;22458;45.328;9.514;2022-10-17T15:18:21;25.30;71.30
36424;DHT22;22458;45.328;9.514;2022-10-17T15:20:47;25.20;71.30
36424;DHT22;22458;45.328;9.514;2022-10-17T15:23:13;25.20;71.50
36424;DHT22;22458;45.328;9.514;2022-10-17T15:25:38;25.20;71.60
36424;DHT22;22458;45.328;9.514;2022-10-17T15:28:04;25.10;71.50
36424;DHT22;22458;45.328;9.514;2022-10-17T15:30:30;25.10;71.50
36424;DHT22;22458;45.328;9.514;2022-10-17T15:32:57;25.00;71.60
36424;DHT22;22458;45.328;9.514;2022-10-17T15:35:22;24.90;71.70
36424;DHT22;22458;45.328;9.514;2022-10-17T15:37:48;24.90;71.80
36424;DHT22;22458;45.328;9.514;2022-10-17T15:40:15;24.80;72.00
36424;DHT22;22458;45.328;9.514;2022-10-17T15:42:41;24.80;72.10
36424;DHT22;22458;45.328;9.514;2022-10-17T15:45:08;24.70;72.10
36424;DHT22;22458;45.328;9.514;2022-10-17T15:47:34;24.70;72.30
36424;DHT22;22458;45.328;9.514;2022-10-17T15:50:00;24.70;72.40
36424;DHT22;22458;45.328;9.514;2022-10-17T15:52:26;24.60;72.50
36424;DHT22;22458;45.328;9.514;2022-10-17T15:54:52;24.60;72.60
36424;DHT22;22458;45.328;9.514;2022-10-17T15:57:19;24.50;72.60
36424;DHT22;22458;45.328;9.514;2022-10-17T15:59:45;24.50;72.70
36424;DHT22;22458;45.328;9.514;2022-10-17T16:02:12;24.40;72.70
36424;DHT22;22458;45.328;9.514;2022-10-17T16:04:38;24.40;73.00
36424;DHT22;22458;45.328;9.514;2022-10-17T16:07:04;24.30;73.10
36424;DHT22;22458;45.328;9.514;2022-10-17T16:09:30;24.20;73.30
36424;DHT22;22458;45.328;9.514;2022-10-17T16:11:55;24.10;73.60
36424;DHT22;22458;45.328;9.514;2022-10-17T16:14:21;24.10;73.60
36424;DHT22;22458;45.328;9.514;2022-10-17T16:16:47;24.00;73.80
36424;DHT22;22458;45.328;9.514;2022-10-17T16:19:12;23.90;73.90
36424;DHT22;22458;45.328;9.514;2022-10-17T16:21:38;23.90;74.00
36424;DHT22;22458;45.328;9.514;2022-10-17T16:24:04;23.80;74.30
36424;DHT22;22458;45.328;9.514;2022-10-17T16:26:30;23.70;74.40
36424;DHT22;22458;45.328;9.514;2022-10-17T16:28:56;23.70;74.50
36424;DHT22;22458;45.328;9.514;2022-10-17T16:31:26;23.60;75.00
36424;DHT22;22458;45.328;9.514;2022-10-17T16:33:54;23.50;74.50
36424;DHT22;22458;45.328;9.514;2022-10-17T16:36:20;23.50;74.70
36424;DHT22;22458;45.328;9.514;2022-10-17T16:38:46;23.40;74.80
36424;DHT22;22458;45.328;9.514;2022-10-17T16:41:20;23.30;74.90
36424;DHT22;22458;45.328;9.514;2022-10-17T16:43:49;23.30;75.00
36424;DHT22;22458;45.328;9.514;2022-10-17T16:46:15;23.20;75.00
36424;DHT22;22458;45.328;9.514;2022-10-17T16:48:43;23.10;75.30
36424;DHT22;22458;45.328;9.514;2022-10-17T16:51:09;23.00;75.50
36424;DHT22;22458;45.328;9.514;2022-10-17T16:53:35;23.00;75.60
36424;DHT22;22458;45.328;9.514;2022-10-17T16:56:05;22.90;75.70
36424;DHT22;22458;45.328;9.514;2022-10-17T16:58:31;22.80;75.90
36424;DHT22;22458;45.328;9.514;2022-10-17T17:01:03;22.80;76.00
36424;DHT22;22458;45.328;9.514;2022-10-17T17:03:33;22.80;76.10
36424;DHT22;22458;45.328;9.514;2022-10-17T17:05:59;22.70;76.00
36424;DHT22;22458;45.328;9.514;2022-10-17T17:08:24;22.70;76.10
36424;DHT22;22458;45.328;9.514;2022-10-17T17:10:50;22.70;76.20
36424;DHT22;22458;45.328;9.514;2022-10-17T17:13:16;22.70;76.20
36424;DHT22;22458;45.328;9.514;2022-10-17T17:15:41;22.60;76.20
36424;DHT22;22458;45.328;9.514;2022-10-17T17:18:07;22.50;76.30
36424;DHT22;22458;45.328;9.514;2022-10-17T17:20:33;22.50;76.30
36424;DHT22;22458;45.328;9.514;2022-10-17T17:22:58;22.50;76.40
36424;DHT22;22458;45.328;9.514;2022-10-17T17:25:24;22.50;76.50